sensor_id;sensor_type;location;lat;lon;timestamp;P1;durP1;ratioP1;P2;durP2;ratioP2
49177;SDS011;35016;55.674;37.468;2023-07-30T00:00:10;12.95;;;7.85;;
49177;SDS011;35016;55.674;37.468;2023-07-30T00:02:37;11.93;;;6.55;;
49177;SDS011;35016;55.674;37.468;2023-07-30T00:05:04;12.32;;;8.07;;
49177;SDS011;35016;55.674;37.468;2023-07-30T00:07:31;13.30;;;8.00;;
49177;SDS011;35016;55.674;37.468;2023-07-30T00:09:58;10.88;;;6.90;;
49177;SDS011;35016;55.674;37.468;2023-07-30T00:12:25;11.75;;;6.88;;
49177;SDS011;35016;55.674;37.468;2023-07-30T00:15:10;11.02;;;6.70;;
49177;SDS011;35016;55.674;37.468;2023-07-30T00:17:37;11.00;;;6.65;;
49177;SDS011;35016;55.674;37.468;2023-07-30T00:20:05;12.85;;;7.70;;
49177;SDS011;35016;55.674;37.468;2023-07-30T00:22:35;11.57;;;7.15;;
49177;SDS011;35016;55.674;37.468;2023-07-30T00:25:02;15.70;;;8.02;;
49177;SDS011;35016;55.674;37.468;2023-07-30T00:27:30;12.10;;;7.95;;
49177;SDS011;35016;55.674;37.468;2023-07-30T00:29:57;12.13;;;7.93;;
49177;SDS011;35016;55.674;37.468;2023-07-30T00:32:24;13.15;;;7.22;;
49177;SDS011;35016;55.674;37.468;2023-07-30T00:34:51;11.40;;;6.72;;
49177;SDS011;35016;55.674;37.468;2023-07-30T00:37:18;13.02;;;7.22;;
49177;SDS011;35016;55.674;37.468;2023-07-30T00:39:45;12.45;;;8.60;;
49177;SDS011;35016;55.674;37.468;2023-07-30T00:42:13;14.00;;;7.85;;
49177;SDS011;35016;55.674;37.468;2023-07-30T00:44:40;11.75;;;7.80;;
49177;SDS011;35016;55.674;37.468;2023-07-30T00:47:07;16.88;;;9.32;;
49177;SDS011;35016;55.674;37.468;2023-07-30T00:49:35;16.63;;;9.57;;
49177;SDS011;35016;55.674;37.468;2023-07-30T00:52:02;20.52;;;9.40;;
49177;SDS011;35016;55.674;37.468;2023-07-30T00:54:30;16.25;;;9.27;;
49177;SDS011;35016;55.674;37.468;2023-07-30T00:56:58;14.70;;;10.07;;
49177;SDS011;35016;55.674;37.468;2023-07-30T00:59:25;17.80;;;11.35;;
49177;SDS011;35016;55.674;37.468;2023-07-30T01:01:53;19.33;;;12.48;;
49177;SDS011;35016;55.674;37.468;2023-07-30T01:04:22;15.10;;;10.70;;
49177;SDS011;35016;55.674;37.468;2023-07-30T01:06:49;17.83;;;10.02;;
49177;SDS011;35016;55.674;37.468;2023-07-30T01:09:16;13.65;;;9.00;;
49177;SDS011;35016;55.674;37.468;2023-07-30T01:11:43;13.88;;;9.32;;
49177;SDS011;35016;55.674;37.468;2023-07-30T01:14:13;12.35;;;8.57;;
49177;SDS011;35016;55.674;37.468;2023-07-30T01:16:41;15.25;;;9.13;;
49177;SDS011;35016;55.674;37.468;2023-07-30T01:19:08;14.25;;;8.10;;
49177;SDS011;35016;55.674;37.468;2023-07-30T01:21:36;13.23;;;7.93;;
49177;SDS011;35016;55.674;37.468;2023-07-30T01:24:04;12.82;;;8.35;;
49177;SDS011;35016;55.674;37.468;2023-07-30T01:26:39;13.73;;;8.45;;
49177;SDS011;35016;55.674;37.468;2023-07-30T01:29:11;12.65;;;7.95;;
49177;SDS011;35016;55.674;37.468;2023-07-30T01:31:42;15.63;;;7.78;;
49177;SDS011;35016;55.674;37.468;2023-07-30T01:34:10;12.35;;;8.63;;
49177;SDS011;35016;55.674;37.468;2023-07-30T01:36:38;14.45;;;8.27;;
49177;SDS011;35016;55.674;37.468;2023-07-30T01:39:06;13.20;;;8.63;;
49177;SDS011;35016;55.674;37.468;2023-07-30T01:41:36;10.85;;;7.43;;
49177;SDS011;35016;55.674;37.468;2023-07-30T01:44:04;15.63;;;9.15;;
49177;SDS011;35016;55.674;37.468;2023-07-30T01:46:31;13.30;;;7.97;;
49177;SDS011;35016;55.674;37.468;2023-07-30T01:48:58;11.70;;;7.72;;
49177;SDS011;35016;55.674;37.468;2023-07-30T01:51:25;12.40;;;7.25;;
49177;SDS011;35016;55.674;37.468;2023-07-30T01:53:53;13.60;;;7.88;;
49177;SDS011;35016;55.674;37.468;2023-07-30T01:56:20;13.80;;;7.18;;
49177;SDS011;35016;55.674;37.468;2023-07-30T01:58:48;11.05;;;6.45;;
49177;SDS011;35016;55.674;37.468;2023-07-30T02:01:15;14.73;;;8.38;;
49177;SDS011;35016;55.674;37.468;2023-07-30T02:03:42;12.52;;;7.70;;
49177;SDS011;35016;55.674;37.468;2023-07-30T02:06:10;12.63;;;8.10;;
49177;SDS011;35016;55.674;37.468;2023-07-30T02:08:38;11.52;;;7.50;;
49177;SDS011;35016;55.674;37.468;2023-07-30T02:11:05;12.43;;;7.40;;
49177;SDS011;35016;55.674;37.468;2023-07-30T02:13:32;12.35;;;8.25;;
49177;SDS011;35016;55.674;37.468;2023-07-30T02:15:59;13.18;;;8.50;;
49177;SDS011;35016;55.674;37.468;2023-07-30T02:18:26;11.68;;;8.65;;
49177;SDS011;35016;55.674;37.468;2023-07-30T02:20:53;17.25;;;7.65;;
49177;SDS011;35016;55.674;37.468;2023-07-30T02:23:20;11.18;;;7.00;;
49177;SDS011;35016;55.674;37.468;2023-07-30T02:25:47;12.43;;;8.25;;
49177;SDS011;35016;55.674;37.468;2023-07-30T02:28:14;11.90;;;8.02;;
49177;SDS011;35016;55.674;37.468;2023-07-30T02:30:42;12.07;;;7.38;;
49177;SDS011;35016;55.674;37.468;2023-07-30T02:33:09;12.80;;;8.85;;
49177;SDS011;35016;55.674;37.468;2023-07-30T02:35:36;12.65;;;7.57;;
49177;SDS011;35016;55.674;37.468;2023-07-30T02:38:03;12.07;;;7.57;;
49177;SDS011;35016;55.674;37.468;2023-07-30T02:40:30;13.23;;;9.45;;
49177;SDS011;35016;55.674;37.468;2023-07-30T02:42:58;13.85;;;8.40;;
49177;SDS011;35016;55.674;37.468;2023-07-30T02:45:25;13.02;;;8.73;;
49177;SDS011;35016;55.674;37.468;2023-07-30T02:47:53;13.07;;;7.72;;
49177;SDS011;35016;55.674;37.468;2023-07-30T02:50:20;11.18;;;7.60;;
49177;SDS011;35016;55.674;37.468;2023-07-30T02:52:47;13.38;;;8.23;;
49177;SDS011;35016;55.674;37.468;2023-07-30T02:55:14;13.48;;;8.57;;
49177;SDS011;35016;55.674;37.468;2023-07-30T02:57:42;12.13;;;7.40;;
49177;SDS011;35016;55.674;37.468;2023-07-30T03:00:10;11.55;;;7.70;;
49177;SDS011;35016;55.674;37.468;2023-07-30T03:02:37;12.95;;;7.43;;
49177;SDS011;35016;55.674;37.468;2023-07-30T03:05:04;11.95;;;7.57;;
49177;SDS011;35016;55.674;37.468;2023-07-30T03:07:32;10.27;;;6.05;;
49177;SDS011;35016;55.674;37.468;2023-07-30T03:09:59;11.10;;;7.32;;
49177;SDS011;35016;55.674;37.468;2023-07-30T03:12:26;9.95;;;7.20;;
49177;SDS011;35016;55.674;37.468;2023-07-30T03:14:54;11.48;;;7.97;;
49177;SDS011;35016;55.674;37.468;2023-07-30T03:17:21;11.90;;;6.38;;
49177;SDS011;35016;55.674;37.468;2023-07-30T03:19:48;11.00;;;6.45;;
49177;SDS011;35016;55.674;37.468;2023-07-30T03:22:15;10.88;;;6.43;;
49177;SDS011;35016;55.674;37.468;2023-07-30T03:24:42;11.90;;;6.53;;
49177;SDS011;35016;55.674;37.468;2023-07-30T03:27:12;10.07;;;5.95;;
49177;SDS011;35016;55.674;37.468;2023-07-30T03:29:39;10.95;;;6.57;;
49177;SDS011;35016;55.674;37.468;2023-07-30T03:32:06;9.32;;;5.57;;
49177;SDS011;35016;55.674;37.468;2023-07-30T03:34:33;10.32;;;5.88;;
49177;SDS011;35016;55.674;37.468;2023-07-30T03:37:00;10.38;;;6.00;;
49177;SDS011;35016;55.674;37.468;2023-07-30T03:39:27;10.85;;;6.07;;
49177;SDS011;35016;55.674;37.468;2023-07-30T03:41:54;11.93;;;6.38;;
49177;SDS011;35016;55.674;37.468;2023-07-30T03:44:21;10.35;;;6.10;;
49177;SDS011;35016;55.674;37.468;2023-07-30T03:46:48;9.27;;;5.05;;
49177;SDS011;35016;55.674;37.468;2023-07-30T03:49:15;9.85;;;5.68;;
49177;SDS011;35016;55.674;37.468;2023-07-30T03:51:42;10.30;;;6.53;;
49177;SDS011;35016;55.674;37.468;2023-07-30T03:54:10;11.05;;;7.00;;
49177;SDS011;35016;55.674;37.468;2023-07-30T03:56:37;11.70;;;5.88;;
49177;SDS011;35016;55.674;37.468;2023-07-30T03:59:04;10.20;;;5.65;;
49177;SDS011;35016;55.674;37.468;2023-07-30T04:01:31;9.65;;;5.85;;
49177;SDS011;35016;55.674;37.468;2023-07-30T04:03:58;10.38;;;5.68;;
49177;SDS011;35016;55.674;37.468;2023-07-30T04:06:25;10.02;;;5.07;;
49177;SDS011;35016;55.674;37.468;2023-07-30T04:08:52;10.60;;;5.55;;
49177;SDS011;35016;55.674;37.468;2023-07-30T04:11:19;9.13;;;4.88;;
49177;SDS011;35016;55.674;37.468;2023-07-30T04:13:47;9.48;;;4.97;;
49177;SDS011;35016;55.674;37.468;2023-07-30T04:16:14;11.32;;;5.13;;
49177;SDS011;35016;55.674;37.468;2023-07-30T04:18:41;9.32;;;5.38;;
49177;SDS011;35016;55.674;37.468;2023-07-30T04:21:08;10.27;;;4.72;;
49177;SDS011;35016;55.674;37.468;2023-07-30T04:23:35;10.00;;;5.15;;
49177;SDS011;35016;55.674;37.468;2023-07-30T04:26:02;9.93;;;3.92;;
49177;SDS011;35016;55.674;37.468;2023-07-30T04:28:29;8.18;;;4.22;;
49177;SDS011;35016;55.674;37.468;2023-07-30T04:30:56;9.50;;;4.15;;
49177;SDS011;35016;55.674;37.468;2023-07-30T04:33:23;8.00;;;4.30;;
49177;SDS011;35016;55.674;37.468;2023-07-30T04:35:53;7.75;;;3.13;;
49177;SDS011;35016;55.674;37.468;2023-07-30T04:38:21;9.25;;;4.15;;
49177;SDS011;35016;55.674;37.468;2023-07-30T04:40:48;8.27;;;3.42;;
49177;SDS011;35016;55.674;37.468;2023-07-30T04:43:15;8.88;;;4.13;;
49177;SDS011;35016;55.674;37.468;2023-07-30T04:45:45;8.52;;;4.55;;
49177;SDS011;35016;55.674;37.468;2023-07-30T04:48:13;8.23;;;3.28;;
49177;SDS011;35016;55.674;37.468;2023-07-30T04:50:40;8.23;;;3.58;;
49177;SDS011;35016;55.674;37.468;2023-07-30T04:53:08;7.72;;;3.60;;
49177;SDS011;35016;55.674;37.468;2023-07-30T04:55:35;8.98;;;3.80;;
49177;SDS011;35016;55.674;37.468;2023-07-30T04:58:02;8.30;;;3.70;;
49177;SDS011;35016;55.674;37.468;2023-07-30T05:00:30;8.95;;;4.25;;
49177;SDS011;35016;55.674;37.468;2023-07-30T05:02:57;9.93;;;5.07;;
49177;SDS011;35016;55.674;37.468;2023-07-30T05:05:24;8.98;;;3.90;;
49177;SDS011;35016;55.674;37.468;2023-07-30T05:07:51;8.65;;;4.40;;
49177;SDS011;35016;55.674;37.468;2023-07-30T05:10:18;7.55;;;3.38;;
49177;SDS011;35016;55.674;37.468;2023-07-30T05:12:45;9.07;;;3.78;;
49177;SDS011;35016;55.674;37.468;2023-07-30T05:15:12;8.32;;;3.70;;
49177;SDS011;35016;55.674;37.468;2023-07-30T05:17:39;9.20;;;4.82;;
49177;SDS011;35016;55.674;37.468;2023-07-30T05:20:07;8.20;;;4.07;;
49177;SDS011;35016;55.674;37.468;2023-07-30T05:22:34;9.23;;;4.25;;
49177;SDS011;35016;55.674;37.468;2023-07-30T05:25:01;9.35;;;4.20;;
49177;SDS011;35016;55.674;37.468;2023-07-30T05:27:28;9.27;;;3.78;;
49177;SDS011;35016;55.674;37.468;2023-07-30T05:29:57;9.15;;;3.67;;
49177;SDS011;35016;55.674;37.468;2023-07-30T05:32:25;7.60;;;3.78;;
49177;SDS011;35016;55.674;37.468;2023-07-30T05:34:52;8.50;;;4.38;;
49177;SDS011;35016;55.674;37.468;2023-07-30T05:37:19;7.38;;;3.13;;
49177;SDS011;35016;55.674;37.468;2023-07-30T05:39:46;10.63;;;4.85;;
49177;SDS011;35016;55.674;37.468;2023-07-30T05:42:13;6.88;;;3.33;;
49177;SDS011;35016;55.674;37.468;2023-07-30T05:44:41;8.73;;;3.42;;
49177;SDS011;35016;55.674;37.468;2023-07-30T05:47:08;7.50;;;3.63;;
49177;SDS011;35016;55.674;37.468;2023-07-30T05:49:35;8.02;;;3.83;;
49177;SDS011;35016;55.674;37.468;2023-07-30T05:52:02;7.18;;;3.25;;
49177;SDS011;35016;55.674;37.468;2023-07-30T05:54:29;9.52;;;4.55;;
49177;SDS011;35016;55.674;37.468;2023-07-30T05:56:56;9.27;;;4.00;;
49177;SDS011;35016;55.674;37.468;2023-07-30T05:59:23;8.57;;;4.13;;
49177;SDS011;35016;55.674;37.468;2023-07-30T06:01:51;11.07;;;3.70;;
49177;SDS011;35016;55.674;37.468;2023-07-30T06:04:18;6.88;;;3.08;;
49177;SDS011;35016;55.674;37.468;2023-07-30T06:06:45;6.47;;;2.72;;
49177;SDS011;35016;55.674;37.468;2023-07-30T06:09:15;7.88;;;3.42;;
49177;SDS011;35016;55.674;37.468;2023-07-30T06:11:44;8.00;;;3.33;;
49177;SDS011;35016;55.674;37.468;2023-07-30T06:14:11;6.72;;;2.97;;
49177;SDS011;35016;55.674;37.468;2023-07-30T06:16:39;8.32;;;2.78;;
49177;SDS011;35016;55.674;37.468;2023-07-30T06:19:07;7.00;;;2.83;;
49177;SDS011;35016;55.674;37.468;2023-07-30T06:21:34;7.70;;;2.97;;
49177;SDS011;35016;55.674;37.468;2023-07-30T06:24:06;10.20;;;3.08;;
49177;SDS011;35016;55.674;37.468;2023-07-30T06:26:33;7.88;;;3.55;;
49177;SDS011;35016;55.674;37.468;2023-07-30T06:29:01;6.63;;;2.47;;
49177;SDS011;35016;55.674;37.468;2023-07-30T06:31:28;6.95;;;3.00;;
49177;SDS011;35016;55.674;37.468;2023-07-30T06:33:55;6.93;;;2.70;;
49177;SDS011;35016;55.674;37.468;2023-07-30T06:36:22;6.53;;;2.67;;
49177;SDS011;35016;55.674;37.468;2023-07-30T06:38:50;8.63;;;3.08;;
49177;SDS011;35016;55.674;37.468;2023-07-30T06:41:17;8.38;;;3.17;;
49177;SDS011;35016;55.674;37.468;2023-07-30T06:43:53;5.70;;;2.55;;
49177;SDS011;35016;55.674;37.468;2023-07-30T06:46:20;7.28;;;3.38;;
49177;SDS011;35016;55.674;37.468;2023-07-30T06:48:47;6.93;;;2.63;;
49177;SDS011;35016;55.674;37.468;2023-07-30T06:51:14;7.60;;;2.90;;
49177;SDS011;35016;55.674;37.468;2023-07-30T06:53:41;7.22;;;2.75;;
49177;SDS011;35016;55.674;37.468;2023-07-30T06:56:08;7.93;;;2.95;;
49177;SDS011;35016;55.674;37.468;2023-07-30T06:58:35;6.47;;;2.65;;
49177;SDS011;35016;55.674;37.468;2023-07-30T07:01:06;7.32;;;2.70;;
49177;SDS011;35016;55.674;37.468;2023-07-30T07:03:33;6.35;;;2.45;;
49177;SDS011;35016;55.674;37.468;2023-07-30T07:06:00;7.47;;;3.00;;
49177;SDS011;35016;55.674;37.468;2023-07-30T07:08:27;6.25;;;2.47;;
49177;SDS011;35016;55.674;37.468;2023-07-30T07:10:55;6.45;;;2.35;;
49177;SDS011;35016;55.674;37.468;2023-07-30T07:13:22;5.57;;;2.33;;
49177;SDS011;35016;55.674;37.468;2023-07-30T07:15:49;8.18;;;3.53;;
49177;SDS011;35016;55.674;37.468;2023-07-30T07:18:16;7.35;;;2.60;;
49177;SDS011;35016;55.674;37.468;2023-07-30T07:20:44;6.03;;;2.58;;
49177;SDS011;35016;55.674;37.468;2023-07-30T07:23:11;8.35;;;2.65;;
49177;SDS011;35016;55.674;37.468;2023-07-30T07:25:39;7.95;;;2.95;;
49177;SDS011;35016;55.674;37.468;2023-07-30T07:28:08;5.38;;;2.03;;
49177;SDS011;35016;55.674;37.468;2023-07-30T07:30:43;6.78;;;2.30;;
49177;SDS011;35016;55.674;37.468;2023-07-30T07:33:11;6.20;;;2.53;;
49177;SDS011;35016;55.674;37.468;2023-07-30T07:35:39;7.28;;;2.95;;
49177;SDS011;35016;55.674;37.468;2023-07-30T07:38:06;6.28;;;2.28;;
49177;SDS011;35016;55.674;37.468;2023-07-30T07:40:37;7.28;;;2.83;;
49177;SDS011;35016;55.674;37.468;2023-07-30T07:43:09;8.93;;;3.08;;
49177;SDS011;35016;55.674;37.468;2023-07-30T07:45:36;7.20;;;2.83;;
49177;SDS011;35016;55.674;37.468;2023-07-30T07:48:06;7.57;;;2.70;;
49177;SDS011;35016;55.674;37.468;2023-07-30T07:50:53;5.63;;;2.50;;
49177;SDS011;35016;55.674;37.468;2023-07-30T07:53:20;6.28;;;2.47;;
49177;SDS011;35016;55.674;37.468;2023-07-30T07:55:47;7.38;;;2.78;;
49177;SDS011;35016;55.674;37.468;2023-07-30T07:58:14;6.20;;;2.53;;
49177;SDS011;35016;55.674;37.468;2023-07-30T08:00:42;6.35;;;2.17;;
49177;SDS011;35016;55.674;37.468;2023-07-30T08:03:09;4.70;;;2.03;;
49177;SDS011;35016;55.674;37.468;2023-07-30T08:05:36;6.22;;;1.80;;
49177;SDS011;35016;55.674;37.468;2023-07-30T08:08:03;6.68;;;2.50;;
49177;SDS011;35016;55.674;37.468;2023-07-30T08:10:31;5.57;;;2.25;;
49177;SDS011;35016;55.674;37.468;2023-07-30T08:12:58;6.20;;;2.60;;
49177;SDS011;35016;55.674;37.468;2023-07-30T08:15:25;6.80;;;2.30;;
49177;SDS011;35016;55.674;37.468;2023-07-30T08:17:53;7.60;;;2.72;;
49177;SDS011;35016;55.674;37.468;2023-07-30T08:20:27;6.25;;;2.20;;
49177;SDS011;35016;55.674;37.468;2023-07-30T08:22:54;5.80;;;2.10;;
49177;SDS011;35016;55.674;37.468;2023-07-30T08:25:21;6.97;;;2.40;;
49177;SDS011;35016;55.674;37.468;2023-07-30T08:27:48;7.22;;;2.90;;
49177;SDS011;35016;55.674;37.468;2023-07-30T08:30:15;6.78;;;2.03;;
49177;SDS011;35016;55.674;37.468;2023-07-30T08:32:42;5.05;;;1.95;;
49177;SDS011;35016;55.674;37.468;2023-07-30T08:35:10;6.85;;;2.58;;
49177;SDS011;35016;55.674;37.468;2023-07-30T08:37:37;5.68;;;2.40;;
49177;SDS011;35016;55.674;37.468;2023-07-30T08:40:04;7.10;;;3.05;;
49177;SDS011;35016;55.674;37.468;2023-07-30T08:42:32;7.80;;;2.75;;
49177;SDS011;35016;55.674;37.468;2023-07-30T08:44:59;5.68;;;1.80;;
49177;SDS011;35016;55.674;37.468;2023-07-30T08:47:28;6.15;;;1.98;;
49177;SDS011;35016;55.674;37.468;2023-07-30T08:49:56;6.63;;;1.88;;
49177;SDS011;35016;55.674;37.468;2023-07-30T08:52:23;8.10;;;2.25;;
49177;SDS011;35016;55.674;37.468;2023-07-30T08:54:52;5.38;;;1.88;;
49177;SDS011;35016;55.674;37.468;2023-07-30T08:57:22;6.15;;;2.03;;
49177;SDS011;35016;55.674;37.468;2023-07-30T08:59:52;5.88;;;2.08;;
49177;SDS011;35016;55.674;37.468;2023-07-30T09:05:04;6.90;;;2.42;;
49177;SDS011;35016;55.674;37.468;2023-07-30T09:07:32;5.57;;;2.13;;
49177;SDS011;35016;55.674;37.468;2023-07-30T09:09:59;9.25;;;3.20;;
49177;SDS011;35016;55.674;37.468;2023-07-30T09:12:28;5.75;;;2.05;;
49177;SDS011;35016;55.674;37.468;2023-07-30T09:15:00;6.80;;;2.20;;
49177;SDS011;35016;55.674;37.468;2023-07-30T09:17:30;6.68;;;2.38;;
49177;SDS011;35016;55.674;37.468;2023-07-30T09:19:58;7.30;;;2.50;;
49177;SDS011;35016;55.674;37.468;2023-07-30T09:22:26;7.45;;;2.50;;
49177;SDS011;35016;55.674;37.468;2023-07-30T09:25:01;5.60;;;1.98;;
49177;SDS011;35016;55.674;37.468;2023-07-30T09:27:29;6.40;;;2.05;;
49177;SDS011;35016;55.674;37.468;2023-07-30T09:29:59;15.73;;;2.63;;
49177;SDS011;35016;55.674;37.468;2023-07-30T09:32:29;5.50;;;2.30;;
49177;SDS011;35016;55.674;37.468;2023-07-30T09:35:04;5.88;;;2.40;;
49177;SDS011;35016;55.674;37.468;2023-07-30T09:37:38;6.65;;;2.17;;
49177;SDS011;35016;55.674;37.468;2023-07-30T09:40:07;8.25;;;2.50;;
49177;SDS011;35016;55.674;37.468;2023-07-30T09:42:35;8.05;;;2.67;;
49177;SDS011;35016;55.674;37.468;2023-07-30T09:45:07;6.78;;;2.55;;
49177;SDS011;35016;55.674;37.468;2023-07-30T09:47:47;5.32;;;1.85;;
49177;SDS011;35016;55.674;37.468;2023-07-30T09:50:15;6.57;;;2.38;;
49177;SDS011;35016;55.674;37.468;2023-07-30T09:52:43;5.60;;;1.85;;
49177;SDS011;35016;55.674;37.468;2023-07-30T09:55:11;6.68;;;2.35;;
49177;SDS011;35016;55.674;37.468;2023-07-30T09:57:38;6.70;;;2.03;;
49177;SDS011;35016;55.674;37.468;2023-07-30T10:00:06;5.38;;;1.90;;
49177;SDS011;35016;55.674;37.468;2023-07-30T10:02:38;5.25;;;1.85;;
49177;SDS011;35016;55.674;37.468;2023-07-30T10:05:11;5.50;;;1.97;;
49177;SDS011;35016;55.674;37.468;2023-07-30T10:07:46;7.60;;;1.98;;
49177;SDS011;35016;55.674;37.468;2023-07-30T10:10:28;5.80;;;2.30;;
49177;SDS011;35016;55.674;37.468;2023-07-30T10:13:01;8.30;;;3.13;;
49177;SDS011;35016;55.674;37.468;2023-07-30T10:15:37;4.85;;;1.70;;
49177;SDS011;35016;55.674;37.468;2023-07-30T10:18:05;5.95;;;1.88;;
49177;SDS011;35016;55.674;37.468;2023-07-30T10:20:34;5.95;;;1.98;;
49177;SDS011;35016;55.674;37.468;2023-07-30T10:23:01;5.35;;;1.98;;
49177;SDS011;35016;55.674;37.468;2023-07-30T10:25:45;6.68;;;2.30;;
49177;SDS011;35016;55.674;37.468;2023-07-30T10:28:35;4.80;;;1.90;;
49177;SDS011;35016;55.674;37.468;2023-07-30T10:31:04;4.22;;;1.60;;
49177;SDS011;35016;55.674;37.468;2023-07-30T10:36:32;6.20;;;2.10;;
49177;SDS011;35016;55.674;37.468;2023-07-30T10:39:10;5.15;;;1.85;;
49177;SDS011;35016;55.674;37.468;2023-07-30T10:41:38;4.65;;;1.75;;
49177;SDS011;35016;55.674;37.468;2023-07-30T10:46:53;4.70;;;1.80;;
49177;SDS011;35016;55.674;37.468;2023-07-30T10:49:22;5.05;;;2.03;;
49177;SDS011;35016;55.674;37.468;2023-07-30T10:51:53;4.53;;;1.80;;
49177;SDS011;35016;55.674;37.468;2023-07-30T10:54:21;4.93;;;2.00;;
49177;SDS011;35016;55.674;37.468;2023-07-30T10:56:48;5.40;;;1.95;;
49177;SDS011;35016;55.674;37.468;2023-07-30T10:59:16;5.65;;;1.77;;
49177;SDS011;35016;55.674;37.468;2023-07-30T11:01:45;5.22;;;1.80;;
49177;SDS011;35016;55.674;37.468;2023-07-30T11:04:14;5.30;;;1.83;;
49177;SDS011;35016;55.674;37.468;2023-07-30T11:06:48;6.40;;;2.20;;
49177;SDS011;35016;55.674;37.468;2023-07-30T11:09:20;4.63;;;1.77;;
49177;SDS011;35016;55.674;37.468;2023-07-30T11:11:49;7.65;;;2.67;;
49177;SDS011;35016;55.674;37.468;2023-07-30T11:14:18;6.00;;;1.90;;
49177;SDS011;35016;55.674;37.468;2023-07-30T11:16:51;5.15;;;1.95;;
49177;SDS011;35016;55.674;37.468;2023-07-30T11:19:20;6.70;;;2.17;;
49177;SDS011;35016;55.674;37.468;2023-07-30T11:21:47;6.47;;;2.08;;
49177;SDS011;35016;55.674;37.468;2023-07-30T11:24:20;6.55;;;2.00;;
49177;SDS011;35016;55.674;37.468;2023-07-30T11:26:57;5.13;;;1.75;;
49177;SDS011;35016;55.674;37.468;2023-07-30T11:29:25;5.80;;;2.20;;
49177;SDS011;35016;55.674;37.468;2023-07-30T11:31:55;4.60;;;1.48;;
49177;SDS011;35016;55.674;37.468;2023-07-30T11:34:24;5.65;;;1.88;;
49177;SDS011;35016;55.674;37.468;2023-07-30T11:36:55;6.35;;;2.45;;
49177;SDS011;35016;55.674;37.468;2023-07-30T11:39:24;5.78;;;2.30;;
49177;SDS011;35016;55.674;37.468;2023-07-30T11:41:52;6.03;;;1.98;;
49177;SDS011;35016;55.674;37.468;2023-07-30T11:47:07;6.90;;;1.88;;
49177;SDS011;35016;55.674;37.468;2023-07-30T11:49:36;8.38;;;2.25;;
49177;SDS011;35016;55.674;37.468;2023-07-30T11:52:04;4.63;;;1.67;;
49177;SDS011;35016;55.674;37.468;2023-07-30T11:54:32;5.70;;;2.30;;
49177;SDS011;35016;55.674;37.468;2023-07-30T11:56:59;6.05;;;2.08;;
49177;SDS011;35016;55.674;37.468;2023-07-30T11:59:26;5.68;;;2.05;;
49177;SDS011;35016;55.674;37.468;2023-07-30T12:01:53;6.07;;;2.15;;
49177;SDS011;35016;55.674;37.468;2023-07-30T12:04:20;5.97;;;1.80;;
49177;SDS011;35016;55.674;37.468;2023-07-30T12:06:48;4.80;;;1.60;;
49177;SDS011;35016;55.674;37.468;2023-07-30T12:09:21;6.75;;;2.10;;
49177;SDS011;35016;55.674;37.468;2023-07-30T12:11:53;6.03;;;1.92;;
49177;SDS011;35016;55.674;37.468;2023-07-30T12:14:25;6.40;;;1.60;;
49177;SDS011;35016;55.674;37.468;2023-07-30T12:17:00;5.70;;;2.00;;
49177;SDS011;35016;55.674;37.468;2023-07-30T12:19:27;5.53;;;1.90;;
49177;SDS011;35016;55.674;37.468;2023-07-30T12:21:54;5.07;;;1.80;;
49177;SDS011;35016;55.674;37.468;2023-07-30T12:24:21;6.07;;;2.05;;
49177;SDS011;35016;55.674;37.468;2023-07-30T12:26:49;6.68;;;2.13;;
49177;SDS011;35016;55.674;37.468;2023-07-30T12:29:19;6.20;;;2.13;;
49177;SDS011;35016;55.674;37.468;2023-07-30T12:31:46;5.50;;;1.85;;
49177;SDS011;35016;55.674;37.468;2023-07-30T12:34:14;4.80;;;1.80;;
49177;SDS011;35016;55.674;37.468;2023-07-30T12:36:42;4.50;;;1.65;;
49177;SDS011;35016;55.674;37.468;2023-07-30T12:39:09;4.75;;;1.55;;
49177;SDS011;35016;55.674;37.468;2023-07-30T12:41:36;5.30;;;1.80;;
49177;SDS011;35016;55.674;37.468;2023-07-30T12:44:03;5.38;;;1.50;;
49177;SDS011;35016;55.674;37.468;2023-07-30T12:46:31;5.70;;;2.00;;
49177;SDS011;35016;55.674;37.468;2023-07-30T12:48:59;5.10;;;2.03;;
49177;SDS011;35016;55.674;37.468;2023-07-30T12:51:31;3.47;;;1.50;;
49177;SDS011;35016;55.674;37.468;2023-07-30T12:54:03;8.27;;;2.72;;
49177;SDS011;35016;55.674;37.468;2023-07-30T12:56:30;5.07;;;1.83;;
49177;SDS011;35016;55.674;37.468;2023-07-30T12:58:57;5.30;;;1.83;;
49177;SDS011;35016;55.674;37.468;2023-07-30T13:01:24;4.97;;;1.52;;
49177;SDS011;35016;55.674;37.468;2023-07-30T13:03:52;4.43;;;1.48;;
49177;SDS011;35016;55.674;37.468;2023-07-30T13:06:21;5.30;;;1.80;;
49177;SDS011;35016;55.674;37.468;2023-07-30T13:08:49;6.30;;;2.20;;
49177;SDS011;35016;55.674;37.468;2023-07-30T13:11:16;5.88;;;1.63;;
49177;SDS011;35016;55.674;37.468;2023-07-30T13:13:43;6.10;;;2.22;;
49177;SDS011;35016;55.674;37.468;2023-07-30T13:16:10;5.07;;;1.95;;
49177;SDS011;35016;55.674;37.468;2023-07-30T13:18:37;5.43;;;1.50;;
49177;SDS011;35016;55.674;37.468;2023-07-30T13:21:05;6.03;;;2.13;;
49177;SDS011;35016;55.674;37.468;2023-07-30T13:23:32;5.93;;;1.80;;
49177;SDS011;35016;55.674;37.468;2023-07-30T13:26:00;6.70;;;1.90;;
49177;SDS011;35016;55.674;37.468;2023-07-30T13:28:28;4.32;;;1.80;;
49177;SDS011;35016;55.674;37.468;2023-07-30T13:30:55;5.35;;;2.05;;
49177;SDS011;35016;55.674;37.468;2023-07-30T13:33:23;6.45;;;2.30;;
49177;SDS011;35016;55.674;37.468;2023-07-30T13:35:50;3.80;;;1.40;;
49177;SDS011;35016;55.674;37.468;2023-07-30T13:38:18;6.82;;;2.35;;
49177;SDS011;35016;55.674;37.468;2023-07-30T13:40:48;7.05;;;2.45;;
49177;SDS011;35016;55.674;37.468;2023-07-30T13:43:15;5.88;;;1.70;;
49177;SDS011;35016;55.674;37.468;2023-07-30T13:45:42;4.55;;;1.40;;
49177;SDS011;35016;55.674;37.468;2023-07-30T13:48:09;4.63;;;1.70;;
49177;SDS011;35016;55.674;37.468;2023-07-30T13:50:37;4.10;;;1.67;;
49177;SDS011;35016;55.674;37.468;2023-07-30T13:53:04;4.82;;;1.50;;
49177;SDS011;35016;55.674;37.468;2023-07-30T13:55:31;7.00;;;2.05;;
49177;SDS011;35016;55.674;37.468;2023-07-30T13:57:58;6.28;;;2.20;;
49177;SDS011;35016;55.674;37.468;2023-07-30T14:00:25;5.70;;;2.10;;
49177;SDS011;35016;55.674;37.468;2023-07-30T14:02:52;5.47;;;1.70;;
49177;SDS011;35016;55.674;37.468;2023-07-30T14:05:22;4.63;;;1.63;;
49177;SDS011;35016;55.674;37.468;2023-07-30T14:07:52;5.47;;;2.00;;
49177;SDS011;35016;55.674;37.468;2023-07-30T14:10:20;5.53;;;2.13;;
49177;SDS011;35016;55.674;37.468;2023-07-30T14:12:47;5.50;;;2.00;;
49177;SDS011;35016;55.674;37.468;2023-07-30T14:15:15;5.65;;;1.50;;
49177;SDS011;35016;55.674;37.468;2023-07-30T14:17:42;5.93;;;1.63;;
49177;SDS011;35016;55.674;37.468;2023-07-30T14:20:09;6.13;;;1.80;;
49177;SDS011;35016;55.674;37.468;2023-07-30T14:22:36;5.70;;;1.70;;
49177;SDS011;35016;55.674;37.468;2023-07-30T14:25:04;4.63;;;1.52;;
49177;SDS011;35016;55.674;37.468;2023-07-30T14:27:31;5.50;;;1.80;;
49177;SDS011;35016;55.674;37.468;2023-07-30T14:29:58;4.70;;;1.67;;
49177;SDS011;35016;55.674;37.468;2023-07-30T14:32:25;7.35;;;2.17;;
49177;SDS011;35016;55.674;37.468;2023-07-30T14:34:52;5.13;;;1.88;;
49177;SDS011;35016;55.674;37.468;2023-07-30T14:37:19;5.82;;;2.28;;
49177;SDS011;35016;55.674;37.468;2023-07-30T14:39:46;6.70;;;2.38;;
49177;SDS011;35016;55.674;37.468;2023-07-30T14:42:13;4.13;;;1.55;;
49177;SDS011;35016;55.674;37.468;2023-07-30T14:44:40;4.97;;;1.67;;
49177;SDS011;35016;55.674;37.468;2023-07-30T14:47:07;4.90;;;1.55;;